Time;durP1;ratioP1;P1;durP2;ratioP2;P2;SDS_P1;SDS_P2;PMS_P1;PMS_P2;Temp;Humidity;BMP_temperature;BMP_pressure;BME280_temperature;BME280_humidity;BME280_pressure;Samples;Min_cycle;Max_cycle;Signal;HPM_P1;HPM_P2
2022/07/31 00:12:58;;;;;;;3.70;1.40;;;;;;;19.53;90.49;100278.17;659383;1277;139842;-87
2022/07/31 00:28:02;;;;;;;3.40;2.00;;;;;;;19.24;92.42;100275.12;658923;1277;139058;-90
2022/07/31 00:43:05;;;;;;;3.20;1.70;;;;;;;18.99;95.33;100272.31;657279;1274;139210;-90
2022/07/31 00:58:08;;;;;;;2.70;1.90;;;;;;;18.79;96.83;100273.58;657818;1277;140005;-90
2022/07/31 01:13:19;;;;;;;2.10;1.50;;;;;;;18.58;99.28;100268.73;657754;1277;139188;-89
2022/07/31 01:28:25;;;;;;;4.90;2.30;;;;;;;18.59;99.54;100250.34;657390;1277;139160;-88
2022/07/31 01:43:32;;;;;;;5.60;2.00;;;;;;;18.60;99.75;100245.29;657072;1277;139967;-87
2022/07/31 01:58:40;;;;;;;5.00;2.10;;;;;;;18.38;99.92;100227.38;657940;1277;140962;-86
2022/07/31 02:13:56;;;;;;;4.50;2.60;;;;;;;18.22;100.00;100208.95;657437;1277;140038;-87
2022/07/31 02:29:01;;;;;;;10.20;2.80;;;;;;;18.08;100.00;100186.24;657096;1277;140554;-87
2022/07/31 02:44:05;;;;;;;6.00;2.00;;;;;;;17.96;100.00;100163.88;657866;1277;140010;-85
2022/07/31 02:59:09;;;;;;;4.10;1.90;;;;;;;17.78;100.00;100148.91;657636;1277;141211;-86
2022/07/31 03:14:31;;;;;;;6.00;1.70;;;;;;;17.63;100.00;100132.41;658362;1277;140757;-88
2022/07/31 03:29:38;;;;;;;4.00;1.50;;;;;;;17.50;100.00;100126.09;659208;1277;140659;-87
2022/07/31 03:44:47;;;;;;;3.20;1.60;;;;;;;17.47;100.00;100122.55;657573;1277;140120;-87
2022/07/31 03:59:50;;;;;;;4.20;1.80;;;;;;;17.32;100.00;100116.07;656559;1277;140285;-88
2022/07/31 04:14:54;;;;;;;3.60;2.00;;;;;;;17.27;100.00;100103.96;655980;1277;139589;-87
2022/07/31 04:29:57;;;;;;;3.30;1.60;;;;;;;17.27;100.00;100110.95;658071;1277;141390;-88
2022/07/31 04:45:00;;;;;;;6.60;2.10;;;;;;;17.26;100.00;100118.06;655152;1277;141111;-87
2022/07/31 05:00:09;;;;;;;3.30;2.30;;;;;;;17.30;100.00;100113.30;656647;1277;140495;-87
2022/07/31 05:15:12;;;;;;;4.80;1.80;;;;;;;17.34;100.00;100102.55;656892;1278;139796;-89
2022/07/31 05:30:16;;;;;;;2.60;1.80;;;;;;;17.47;100.00;100093.41;658136;1277;140926;-86
2022/07/31 05:45:32;;;;;;;3.10;1.70;;;;;;;17.57;100.00;100097.83;657862;1277;140161;-86
2022/07/31 06:00:36;;;;;;;2.30;1.50;;;;;;;17.62;100.00;100097.60;657420;1277;140733;-86
2022/07/31 06:15:41;;;;;;;4.50;2.20;;;;;;;17.70;100.00;100091.90;656158;1278;140299;-84
2022/07/31 06:30:52;;;;;;;5.10;2.20;;;;;;;17.87;100.00;100088.63;657729;1277;139312;-86
2022/07/31 06:45:55;;;;;;;4.50;2.20;;;;;;;18.05;100.00;100082.02;657687;1277;140735;-87
2022/07/31 07:01:28;;;;;;;2.60;2.00;;;;;;;17.98;100.00;100062.16;665507;1277;140000;-86
2022/07/31 07:16:32;;;;;;;4.40;2.10;;;;;;;17.88;100.00;100052.98;657337;1277;141096;-86
2022/07/31 07:31:37;;;;;;;5.40;3.10;;;;;;;17.86;100.00;100056.56;656583;1277;140465;-87
2022/07/31 07:46:41;;;;;;;3.40;2.50;;;;;;;17.73;100.00;100053.16;657349;1277;140682;-88
2022/07/31 08:01:47;;;;;;;4.10;2.70;;;;;;;17.48;100.00;100061.33;656740;1277;141060;-86
2022/07/31 08:16:58;;;;;;;5.00;3.00;;;;;;;17.43;100.00;100055.48;657466;1276;139618;-90
2022/07/31 08:32:01;;;;;;;4.10;2.70;;;;;;;17.53;100.00;100054.08;661178;1276;140658;-86
2022/07/31 08:47:25;;;;;;;3.40;2.60;;;;;;;17.68;100.00;100050.05;660369;1277;139936;-88
2022/07/31 09:02:31;;;;;;;4.20;2.60;;;;;;;17.74;100.00;100059.54;659052;1277;141331;-87
2022/07/31 09:17:54;;;;;;;3.50;2.70;;;;;;;17.85;100.00;100063.33;658777;1277;139306;-89
2022/07/31 09:33:18;;;;;;;3.30;2.40;;;;;;;17.98;100.00;100066.46;663523;1277;140317;-87
2022/07/31 09:48:50;;;;;;;5.10;3.30;;;;;;;17.95;100.00;100071.40;660466;1276;141112;-87
2022/07/31 10:04:05;;;;;;;4.30;2.70;;;;;;;17.78;100.00;100062.96;657558;1277;140308;-87
2022/07/31 10:19:12;;;;;;;5.90;4.20;;;;;;;17.82;100.00;100057.95;657862;1277;352930;-89
2022/07/31 10:34:34;;;;;;;6.00;2.80;;;;;;;17.85;100.00;100062.02;660411;1277;140418;-87
2022/07/31 10:49:54;;;;;;;5.60;4.50;;;;;;;17.90;100.00;100064.80;658147;1277;140687;-85
2022/07/31 11:05:30;;;;;;;8.60;5.20;;;;;;;18.23;100.00;100067.20;658414;1277;139205;-86
2022/07/31 11:21:13;;;;;;;4.40;3.10;;;;;;;18.51;100.00;100067.38;658764;1275;140342;-86
2022/07/31 11:36:37;;;;;;;5.30;3.80;;;;;;;18.58;100.00;100070.30;659281;1277;139455;-86
2022/07/31 11:51:40;;;;;;;7.30;4.90;;;;;;;18.60;100.00;100078.84;658902;1277;139388;-87
2022/07/31 12:06:44;;;;;;;3.00;2.30;;;;;;;18.61;100.00;100075.13;659709;1277;140626;-88
2022/07/31 12:21:48;;;;;;;2.30;2.00;;;;;;;18.81;100.00;100074.55;658270;1277;139085;-89
2022/07/31 12:37:06;;;;;;;4.60;3.80;;;;;;;18.72;100.00;100087.02;659464;1277;140424;-89
2022/07/31 12:52:10;;;;;;;5.50;3.20;;;;;;;18.54;100.00;100089.98;659792;1277;140825;-89
2022/07/31 13:07:13;;;;;;;3.70;2.20;;;;;;;18.78;100.00;100091.11;659609;1277;139663;-87
2022/07/31 13:22:20;;;;;;;4.30;2.60;;;;;;;18.68;100.00;100090.88;660456;1277;141058;-87
2022/07/31 13:37:24;;;;;;;4.90;3.00;;;;;;;18.69;100.00;100092.40;659562;1277;140255;-88
2022/07/31 13:52:28;;;;;;;7.90;3.60;;;;;;;18.58;100.00;100092.85;659726;1277;139063;-89
2022/07/31 14:07:32;;;;;;;2.90;2.10;;;;;;;18.44;100.00;100094.94;659246;1277;139149;-90
2022/07/31 14:22:50;;;;;;;2.70;2.30;;;;;;;18.38;100.00;100096.16;658516;1277;139329;-91
2022/07/31 15:00:13;;;;;;;3.40;1.70;;;;;;;18.70;100.00;100116.36;641389;1307;545203;-90
2022/07/31 15:15:17;;;;;;;8.90;2.10;;;;;;;18.74;100.00;100117.61;653021;1286;138702;-90
2022/07/31 15:30:21;;;;;;;3.90;1.70;;;;;;;18.73;100.00;100124.80;652780;1287;139035;-91
2022/07/31 15:45:25;;;;;;;3.50;1.80;;;;;;;18.71;100.00;100126.37;652983;1287;138711;-93
2022/07/31 16:00:29;;;;;;;4.20;2.10;;;;;;;18.63;100.00;100128.73;652624;1287;140221;-90
2022/07/31 16:15:33;;;;;;;4.70;2.30;;;;;;;18.69;100.00;100121.78;652559;1287;138717;-91
2022/07/31 16:30:38;;;;;;;6.70;4.30;;;;;;;18.64;100.00;100120.73;653194;1288;139756;-91
2022/07/31 16:45:42;;;;;;;5.70;2.20;;;;;;;18.80;100.00;100120.69;652749;1287;139573;-91
2022/07/31 17:00:46;;;;;;;6.10;1.90;;;;;;;19.01;100.00;100126.86;652300;1289;139476;-91
2022/07/31 17:15:50;;;;;;;9.20;2.50;;;;;;;19.11;100.00;100118.48;652611;1288;139682;-93
2022/07/31 17:30:53;;;;;;;7.10;2.70;;;;;;;19.17;100.00;100110.41;654826;1290;139554;-91
2022/07/31 17:45:58;;;;;;;4.20;1.90;;;;;;;19.10;100.00;100108.11;652369;1287;139332;-92
2022/07/31 18:01:11;;;;;;;4.60;2.10;;;;;;;19.13;100.00;100120.23;652356;1289;139681;-91
2022/07/31 18:16:17;;;;;;;11.10;2.20;;;;;;;18.97;100.00;100127.86;652540;1289;139040;-92
2022/07/31 18:31:21;;;;;;;4.50;2.10;;;;;;;18.86;100.00;100127.08;652818;1287;140044;-91
2022/07/31 18:46:37;;;;;;;7.50;2.10;;;;;;;18.85;100.00;100133.92;653044;1289;139152;-91
2022/07/31 19:01:40;;;;;;;4.00;1.90;;;;;;;18.68;100.00;100132.25;652825;1288;139621;-89
2022/07/31 19:16:44;;;;;;;4.40;2.30;;;;;;;18.51;100.00;100144.48;653139;1288;140432;-90
2022/07/31 19:31:51;;;;;;;14.50;5.40;;;;;;;18.29;100.00;100144.16;652892;1287;139254;-90
2022/07/31 19:47:01;;;;;;;11.90;5.20;;;;;;;18.00;100.00;100137.34;657295;1289;23496;-89
2022/07/31 20:02:04;;;;;;;20.50;9.30;;;;;;;17.73;100.00;100132.05;653500;1289;22675;-91
2022/07/31 20:17:08;;;;;;;14.70;6.40;;;;;;;17.38;100.00;100125.08;650463;1289;23396;-91
2022/07/31 20:32:12;;;;;;;16.40;6.50;;;;;;;16.79;100.00;100113.21;651239;1289;22633;-90
2022/07/31 20:47:16;;;;;;;9.70;4.20;;;;;;;16.58;100.00;100109.66;650932;1289;25347;-91
2022/07/31 21:02:26;;;;;;;11.40;6.20;;;;;;;16.47;100.00;100100.39;652156;1289;22675;-86
2022/07/31 21:17:30;;;;;;;15.90;7.20;;;;;;;16.49;100.00;100084.98;652393;1289;23484;-91
2022/07/31 21:32:33;;;;;;;11.20;5.10;;;;;;;16.62;100.00;100077.28;652967;1289;25261;-90
2022/07/31 21:47:39;;;;;;;10.00;4.90;;;;;;;16.77;100.00;100074.34;651554;1289;22579;-91
2022/07/31 22:02:55;;;;;;;11.20;5.70;;;;;;;16.82;100.00;100068.46;651775;1289;22553;-90
2022/07/31 22:17:59;;;;;;;5.50;3.00;;;;;;;16.96;100.00;100065.02;650372;1289;22573;-89
2022/07/31 22:33:03;;;;;;;10.40;3.60;;;;;;;17.00;100.00;100057.70;650145;1289;22707;-89
2022/07/31 22:48:08;;;;;;;6.40;3.00;;;;;;;16.90;100.00;100051.39;650068;1289;23919;-89
2022/07/31 23:03:12;;;;;;;4.30;2.90;;;;;;;16.78;100.00;100057.85;650739;1289;22616;-89
2022/07/31 23:18:15;;;;;;;5.10;3.30;;;;;;;16.65;100.00;100055.54;651338;1289;22547;-91
2022/07/31 23:33:18;;;;;;;11.20;3.90;;;;;;;16.45;100.00;100041.98;651167;1289;22601;-89
2022/07/31 23:48:22;;;;;;;10.90;5.00;;;;;;;16.18;100.00;100038.77;653322;1289;25349;-91
